sensor_id;sensor_type;location;lat;lon;timestamp;P1;durP1;ratioP1;P2;durP2;ratioP2
2652;SDS011;1336;48.692;9.144;2023-01-25T06:00:25;18.40;;;14.10;;
2652;SDS011;1336;48.692;9.144;2023-01-25T06:01:19;18.20;;;15.57;;
2652;SDS011;1336;48.692;9.144;2023-01-25T06:02:14;17.95;;;15.60;;
2652;SDS011;1336;48.692;9.144;2023-01-25T06:03:06;18.00;;;14.85;;
2652;SDS011;1336;48.692;9.144;2023-01-25T06:04:01;15.95;;;13.73;;
2652;SDS011;1336;48.692;9.144;2023-01-25T06:04:54;19.95;;;15.55;;
2652;SDS011;1336;48.692;9.144;2023-01-25T06:05:45;19.17;;;14.93;;
2652;SDS011;1336;48.692;9.144;2023-01-25T06:06:39;17.08;;;14.38;;
2652;SDS011;1336;48.692;9.144;2023-01-25T06:07:32;16.50;;;14.50;;
2652;SDS011;1336;48.692;9.144;2023-01-25T06:08:25;17.73;;;15.82;;
2652;SDS011;1336;48.692;9.144;2023-01-25T06:09:17;19.25;;;15.60;;
2652;SDS011;1336;48.692;9.144;2023-01-25T06:10:10;18.08;;;14.77;;
2652;SDS011;1336;48.692;9.144;2023-01-25T06:11:04;18.13;;;15.00;;
2652;SDS011;1336;48.692;9.144;2023-01-25T06:11:57;20.20;;;15.90;;
2652;SDS011;1336;48.692;9.144;2023-01-25T06:12:51;18.75;;;15.25;;
2652;SDS011;1336;48.692;9.144;2023-01-25T06:13:50;17.77;;;15.00;;
2652;SDS011;1336;48.692;9.144;2023-01-25T06:14:41;20.37;;;16.17;;
2652;SDS011;1336;48.692;9.144;2023-01-25T06:15:34;18.90;;;15.07;;
2652;SDS011;1336;48.692;9.144;2023-01-25T06:16:24;17.92;;;14.98;;
2652;SDS011;1336;48.692;9.144;2023-01-25T06:17:16;17.80;;;15.68;;
2652;SDS011;1336;48.692;9.144;2023-01-25T06:18:07;17.00;;;15.00;;
2652;SDS011;1336;48.692;9.144;2023-01-25T06:18:59;18.08;;;15.57;;
2652;SDS011;1336;48.692;9.144;2023-01-25T06:19:49;17.23;;;15.00;;
2652;SDS011;1336;48.692;9.144;2023-01-25T06:20:41;19.20;;;15.73;;
2652;SDS011;1336;48.692;9.144;2023-01-25T06:21:32;20.20;;;15.60;;
2652;SDS011;1336;48.692;9.144;2023-01-25T06:22:25;18.35;;;15.68;;
2652;SDS011;1336;48.692;9.144;2023-01-25T06:23:16;18.00;;;15.10;;
2652;SDS011;1336;48.692;9.144;2023-01-25T06:24:08;17.67;;;15.75;;
2652;SDS011;1336;48.692;9.144;2023-01-25T06:24:59;15.80;;;14.20;;
2652;SDS011;1336;48.692;9.144;2023-01-25T06:25:51;15.73;;;14.05;;
2652;SDS011;1336;48.692;9.144;2023-01-25T06:26:42;16.73;;;14.23;;
2652;SDS011;1336;48.692;9.144;2023-01-25T06:27:34;17.98;;;14.25;;
2652;SDS011;1336;48.692;9.144;2023-01-25T06:28:25;17.23;;;15.40;;
2652;SDS011;1336;48.692;9.144;2023-01-25T06:29:19;17.05;;;14.82;;
2652;SDS011;1336;48.692;9.144;2023-01-25T06:30:10;16.43;;;14.60;;
2652;SDS011;1336;48.692;9.144;2023-01-25T06:31:04;16.92;;;15.13;;
2652;SDS011;1336;48.692;9.144;2023-01-25T06:31:56;17.10;;;14.63;;
2652;SDS011;1336;48.692;9.144;2023-01-25T06:32:48;16.45;;;14.25;;
2652;SDS011;1336;48.692;9.144;2023-01-25T06:33:40;17.50;;;15.02;;
2652;SDS011;1336;48.692;9.144;2023-01-25T06:34:32;17.77;;;14.85;;
2652;SDS011;1336;48.692;9.144;2023-01-25T06:35:22;17.70;;;14.17;;
2652;SDS011;1336;48.692;9.144;2023-01-25T06:36:15;17.60;;;14.70;;
2652;SDS011;1336;48.692;9.144;2023-01-25T06:37:08;15.73;;;14.00;;
2652;SDS011;1336;48.692;9.144;2023-01-25T06:38:00;18.80;;;15.48;;
2652;SDS011;1336;48.692;9.144;2023-01-25T06:38:51;15.30;;;13.40;;
2652;SDS011;1336;48.692;9.144;2023-01-25T06:39:43;16.42;;;14.63;;
2652;SDS011;1336;48.692;9.144;2023-01-25T06:40:34;16.63;;;14.63;;
2652;SDS011;1336;48.692;9.144;2023-01-25T06:41:25;17.25;;;14.85;;
2652;SDS011;1336;48.692;9.144;2023-01-25T06:42:16;16.83;;;14.20;;
2652;SDS011;1336;48.692;9.144;2023-01-25T06:43:08;16.38;;;14.65;;
2652;SDS011;1336;48.692;9.144;2023-01-25T06:44:00;17.05;;;14.55;;
2652;SDS011;1336;48.692;9.144;2023-01-25T06:44:52;18.02;;;15.15;;
2652;SDS011;1336;48.692;9.144;2023-01-25T06:45:43;17.43;;;14.97;;
2652;SDS011;1336;48.692;9.144;2023-01-25T06:46:36;16.77;;;14.40;;
2652;SDS011;1336;48.692;9.144;2023-01-25T06:47:26;15.02;;;13.43;;
2652;SDS011;1336;48.692;9.144;2023-01-25T06:48:18;16.90;;;14.40;;
2652;SDS011;1336;48.692;9.144;2023-01-25T06:49:09;17.80;;;15.20;;
2652;SDS011;1336;48.692;9.144;2023-01-25T06:50:01;17.58;;;14.15;;
2652;SDS011;1336;48.692;9.144;2023-01-25T06:50:52;17.90;;;14.70;;
2652;SDS011;1336;48.692;9.144;2023-01-25T06:51:44;18.27;;;14.68;;
2652;SDS011;1336;48.692;9.144;2023-01-25T06:52:35;18.63;;;15.13;;
2652;SDS011;1336;48.692;9.144;2023-01-25T06:53:27;17.13;;;14.07;;
2652;SDS011;1336;48.692;9.144;2023-01-25T06:54:19;16.13;;;13.82;;
2652;SDS011;1336;48.692;9.144;2023-01-25T06:55:11;16.40;;;13.93;;
2652;SDS011;1336;48.692;9.144;2023-01-25T06:56:03;16.98;;;14.43;;
2652;SDS011;1336;48.692;9.144;2023-01-25T06:56:56;17.42;;;15.00;;
2652;SDS011;1336;48.692;9.144;2023-01-25T06:57:47;20.30;;;15.50;;
2652;SDS011;1336;48.692;9.144;2023-01-25T06:58:39;17.20;;;14.52;;
2652;SDS011;1336;48.692;9.144;2023-01-25T06:59:30;17.25;;;15.13;;
2652;SDS011;1336;48.692;9.144;2023-01-25T07:00:22;18.95;;;15.82;;
2652;SDS011;1336;48.692;9.144;2023-01-25T07:01:13;18.93;;;14.00;;
2652;SDS011;1336;48.692;9.144;2023-01-25T07:02:10;23.40;;;16.27;;
2652;SDS011;1336;48.692;9.144;2023-01-25T07:03:04;22.23;;;15.80;;
2652;SDS011;1336;48.692;9.144;2023-01-25T07:03:56;23.20;;;15.82;;
2652;SDS011;1336;48.692;9.144;2023-01-25T07:04:47;19.75;;;15.40;;
2652;SDS011;1336;48.692;9.144;2023-01-25T07:05:39;25.52;;;16.10;;
2652;SDS011;1336;48.692;9.144;2023-01-25T07:06:30;22.43;;;15.90;;
2652;SDS011;1336;48.692;9.144;2023-01-25T07:07:23;18.83;;;15.27;;
2652;SDS011;1336;48.692;9.144;2023-01-25T07:08:14;21.17;;;14.53;;
2652;SDS011;1336;48.692;9.144;2023-01-25T07:09:07;23.77;;;15.70;;
2652;SDS011;1336;48.692;9.144;2023-01-25T07:09:59;22.15;;;15.82;;
2652;SDS011;1336;48.692;9.144;2023-01-25T07:10:52;16.30;;;14.60;;
2652;SDS011;1336;48.692;9.144;2023-01-25T07:11:44;16.90;;;14.90;;
2652;SDS011;1336;48.692;9.144;2023-01-25T07:12:36;18.13;;;14.63;;
2652;SDS011;1336;48.692;9.144;2023-01-25T07:13:27;19.50;;;16.30;;
2652;SDS011;1336;48.692;9.144;2023-01-25T07:14:19;16.20;;;14.15;;
2652;SDS011;1336;48.692;9.144;2023-01-25T07:15:10;18.40;;;14.93;;
2652;SDS011;1336;48.692;9.144;2023-01-25T07:16:03;16.45;;;14.70;;
2652;SDS011;1336;48.692;9.144;2023-01-25T07:16:55;17.80;;;15.90;;
2652;SDS011;1336;48.692;9.144;2023-01-25T07:17:49;17.83;;;15.45;;
2652;SDS011;1336;48.692;9.144;2023-01-25T07:18:39;16.95;;;14.50;;
2652;SDS011;1336;48.692;9.144;2023-01-25T07:19:31;19.27;;;16.40;;
2652;SDS011;1336;48.692;9.144;2023-01-25T07:20:22;17.00;;;15.30;;
2652;SDS011;1336;48.692;9.144;2023-01-25T07:21:14;17.65;;;15.82;;
2652;SDS011;1336;48.692;9.144;2023-01-25T07:22:06;20.27;;;15.50;;
2652;SDS011;1336;48.692;9.144;2023-01-25T07:22:58;18.70;;;15.35;;
2652;SDS011;1336;48.692;9.144;2023-01-25T07:23:49;18.20;;;15.07;;
2652;SDS011;1336;48.692;9.144;2023-01-25T07:24:42;20.27;;;15.63;;
2652;SDS011;1336;48.692;9.144;2023-01-25T07:25:42;19.25;;;16.42;;
2652;SDS011;1336;48.692;9.144;2023-01-25T07:26:33;19.38;;;15.13;;
2652;SDS011;1336;48.692;9.144;2023-01-25T07:27:24;19.30;;;15.63;;
2652;SDS011;1336;48.692;9.144;2023-01-25T07:28:16;18.55;;;14.95;;
2652;SDS011;1336;48.692;9.144;2023-01-25T07:29:07;18.30;;;16.23;;
2652;SDS011;1336;48.692;9.144;2023-01-25T07:30:03;17.30;;;14.70;;
2652;SDS011;1336;48.692;9.144;2023-01-25T07:30:55;17.42;;;15.05;;
2652;SDS011;1336;48.692;9.144;2023-01-25T07:31:47;16.63;;;14.52;;
2652;SDS011;1336;48.692;9.144;2023-01-25T07:32:37;17.80;;;15.17;;
2652;SDS011;1336;48.692;9.144;2023-01-25T07:33:30;18.27;;;16.15;;
2652;SDS011;1336;48.692;9.144;2023-01-25T07:34:22;17.70;;;15.75;;
2652;SDS011;1336;48.692;9.144;2023-01-25T07:35:13;19.90;;;15.97;;
2652;SDS011;1336;48.692;9.144;2023-01-25T07:36:06;17.77;;;15.82;;
2652;SDS011;1336;48.692;9.144;2023-01-25T07:36:57;19.00;;;16.60;;
2652;SDS011;1336;48.692;9.144;2023-01-25T07:37:49;18.40;;;16.00;;
2652;SDS011;1336;48.692;9.144;2023-01-25T07:38:40;17.40;;;14.50;;
2652;SDS011;1336;48.692;9.144;2023-01-25T07:39:31;17.80;;;14.40;;
2652;SDS011;1336;48.692;9.144;2023-01-25T07:40:22;17.10;;;14.90;;
2652;SDS011;1336;48.692;9.144;2023-01-25T07:41:14;17.52;;;15.30;;
2652;SDS011;1336;48.692;9.144;2023-01-25T07:42:05;18.40;;;15.27;;
2652;SDS011;1336;48.692;9.144;2023-01-25T07:42:57;16.83;;;14.95;;
2652;SDS011;1336;48.692;9.144;2023-01-25T07:43:48;18.27;;;16.00;;
2652;SDS011;1336;48.692;9.144;2023-01-25T07:44:39;18.25;;;15.23;;
2652;SDS011;1336;48.692;9.144;2023-01-25T07:45:30;20.33;;;15.67;;
2652;SDS011;1336;48.692;9.144;2023-01-25T07:46:22;19.17;;;15.85;;
2652;SDS011;1336;48.692;9.144;2023-01-25T07:47:13;18.38;;;15.90;;
2652;SDS011;1336;48.692;9.144;2023-01-25T07:48:07;18.60;;;15.82;;
2652;SDS011;1336;48.692;9.144;2023-01-25T07:49:00;18.13;;;15.52;;
2652;SDS011;1336;48.692;9.144;2023-01-25T07:49:52;17.58;;;15.50;;
2652;SDS011;1336;48.692;9.144;2023-01-25T07:50:44;17.48;;;15.40;;
2652;SDS011;1336;48.692;9.144;2023-01-25T07:51:38;18.15;;;15.48;;
2652;SDS011;1336;48.692;9.144;2023-01-25T07:52:29;20.50;;;16.33;;
2652;SDS011;1336;48.692;9.144;2023-01-25T07:53:20;21.38;;;18.33;;
2652;SDS011;1336;48.692;9.144;2023-01-25T07:54:11;17.97;;;15.90;;
2652;SDS011;1336;48.692;9.144;2023-01-25T07:55:03;17.27;;;15.18;;
2652;SDS011;1336;48.692;9.144;2023-01-25T07:55:57;18.88;;;16.33;;
2652;SDS011;1336;48.692;9.144;2023-01-25T07:56:48;20.88;;;16.33;;
2652;SDS011;1336;48.692;9.144;2023-01-25T07:57:40;20.05;;;15.73;;
2652;SDS011;1336;48.692;9.144;2023-01-25T07:58:31;19.20;;;15.70;;
2652;SDS011;1336;48.692;9.144;2023-01-25T07:59:23;20.55;;;15.77;;
2652;SDS011;1336;48.692;9.144;2023-01-25T08:00:14;22.25;;;15.35;;
2652;SDS011;1336;48.692;9.144;2023-01-25T08:01:07;19.52;;;16.05;;
2652;SDS011;1336;48.692;9.144;2023-01-25T08:01:58;21.55;;;15.73;;
2652;SDS011;1336;48.692;9.144;2023-01-25T08:02:50;19.90;;;16.23;;
2652;SDS011;1336;48.692;9.144;2023-01-25T08:03:41;20.10;;;15.97;;
2652;SDS011;1336;48.692;9.144;2023-01-25T08:04:35;17.55;;;15.00;;
2652;SDS011;1336;48.692;9.144;2023-01-25T08:05:26;20.85;;;16.23;;
2652;SDS011;1336;48.692;9.144;2023-01-25T08:06:21;20.00;;;16.30;;
2652;SDS011;1336;48.692;9.144;2023-01-25T08:07:16;20.10;;;16.13;;
2652;SDS011;1336;48.692;9.144;2023-01-25T08:08:09;20.10;;;16.17;;
2652;SDS011;1336;48.692;9.144;2023-01-25T08:09:00;18.97;;;16.00;;
2652;SDS011;1336;48.692;9.144;2023-01-25T08:09:53;19.00;;;16.98;;
2652;SDS011;1336;48.692;9.144;2023-01-25T08:10:44;19.40;;;17.05;;
2652;SDS011;1336;48.692;9.144;2023-01-25T08:11:36;17.92;;;16.02;;
2652;SDS011;1336;48.692;9.144;2023-01-25T08:12:27;17.73;;;15.50;;
2652;SDS011;1336;48.692;9.144;2023-01-25T08:13:19;19.60;;;16.48;;
2652;SDS011;1336;48.692;9.144;2023-01-25T08:14:09;18.97;;;15.70;;
2652;SDS011;1336;48.692;9.144;2023-01-25T08:15:01;17.08;;;15.02;;
2652;SDS011;1336;48.692;9.144;2023-01-25T08:15:53;16.58;;;14.13;;
2652;SDS011;1336;48.692;9.144;2023-01-25T08:16:45;17.38;;;14.00;;
2652;SDS011;1336;48.692;9.144;2023-01-25T08:17:36;17.50;;;15.20;;
2652;SDS011;1336;48.692;9.144;2023-01-25T08:18:28;17.95;;;15.35;;
2652;SDS011;1336;48.692;9.144;2023-01-25T08:19:18;18.10;;;16.20;;
2652;SDS011;1336;48.692;9.144;2023-01-25T08:20:12;19.27;;;16.23;;
2652;SDS011;1336;48.692;9.144;2023-01-25T08:21:03;17.02;;;15.18;;
2652;SDS011;1336;48.692;9.144;2023-01-25T08:21:55;17.90;;;15.75;;
2652;SDS011;1336;48.692;9.144;2023-01-25T08:22:47;18.40;;;16.40;;
2652;SDS011;1336;48.692;9.144;2023-01-25T08:23:38;18.93;;;15.87;;
2652;SDS011;1336;48.692;9.144;2023-01-25T08:24:29;20.75;;;16.20;;
2652;SDS011;1336;48.692;9.144;2023-01-25T08:25:21;18.05;;;15.75;;
2652;SDS011;1336;48.692;9.144;2023-01-25T08:26:13;17.60;;;15.07;;
2652;SDS011;1336;48.692;9.144;2023-01-25T08:27:05;18.10;;;15.43;;
2652;SDS011;1336;48.692;9.144;2023-01-25T08:27:57;18.02;;;15.32;;
2652;SDS011;1336;48.692;9.144;2023-01-25T08:28:48;19.50;;;16.33;;
2652;SDS011;1336;48.692;9.144;2023-01-25T08:29:42;17.98;;;16.05;;
2652;SDS011;1336;48.692;9.144;2023-01-25T08:30:33;18.50;;;16.37;;
2652;SDS011;1336;48.692;9.144;2023-01-25T08:31:25;17.42;;;15.63;;
2652;SDS011;1336;48.692;9.144;2023-01-25T08:32:18;18.45;;;15.40;;
2652;SDS011;1336;48.692;9.144;2023-01-25T08:33:09;16.48;;;14.77;;
2652;SDS011;1336;48.692;9.144;2023-01-25T08:34:00;16.27;;;14.20;;
2652;SDS011;1336;48.692;9.144;2023-01-25T08:34:53;16.80;;;15.05;;
2652;SDS011;1336;48.692;9.144;2023-01-25T08:35:54;17.48;;;15.55;;
2652;SDS011;1336;48.692;9.144;2023-01-25T08:36:45;16.48;;;14.63;;
2652;SDS011;1336;48.692;9.144;2023-01-25T08:37:37;17.50;;;15.65;;
2652;SDS011;1336;48.692;9.144;2023-01-25T08:38:27;17.00;;;14.90;;
2652;SDS011;1336;48.692;9.144;2023-01-25T08:39:19;17.00;;;15.13;;
2652;SDS011;1336;48.692;9.144;2023-01-25T08:40:11;16.65;;;14.98;;
2652;SDS011;1336;48.692;9.144;2023-01-25T08:41:03;19.73;;;15.07;;
2652;SDS011;1336;48.692;9.144;2023-01-25T08:41:56;17.10;;;15.27;;
2652;SDS011;1336;48.692;9.144;2023-01-25T08:42:47;17.55;;;15.50;;
2652;SDS011;1336;48.692;9.144;2023-01-25T08:43:38;17.70;;;15.80;;
2652;SDS011;1336;48.692;9.144;2023-01-25T08:44:30;17.90;;;15.43;;
2652;SDS011;1336;48.692;9.144;2023-01-25T08:45:22;20.70;;;15.73;;
2652;SDS011;1336;48.692;9.144;2023-01-25T08:46:13;18.73;;;16.60;;
2652;SDS011;1336;48.692;9.144;2023-01-25T08:47:06;17.50;;;14.82;;
2652;SDS011;1336;48.692;9.144;2023-01-25T08:47:57;18.70;;;16.70;;
2652;SDS011;1336;48.692;9.144;2023-01-25T08:48:52;18.25;;;15.95;;
2652;SDS011;1336;48.692;9.144;2023-01-25T08:49:44;16.55;;;14.75;;
2652;SDS011;1336;48.692;9.144;2023-01-25T08:50:35;18.17;;;15.20;;
2652;SDS011;1336;48.692;9.144;2023-01-25T08:51:28;17.50;;;15.57;;
2652;SDS011;1336;48.692;9.144;2023-01-25T08:52:21;19.02;;;16.13;;
2652;SDS011;1336;48.692;9.144;2023-01-25T08:53:12;19.67;;;17.33;;
2652;SDS011;1336;48.692;9.144;2023-01-25T08:54:04;17.05;;;14.93;;
2652;SDS011;1336;48.692;9.144;2023-01-25T08:54:57;17.17;;;15.38;;
2652;SDS011;1336;48.692;9.144;2023-01-25T08:55:48;16.87;;;14.90;;
2652;SDS011;1336;48.692;9.144;2023-01-25T08:56:40;20.35;;;16.73;;
2652;SDS011;1336;48.692;9.144;2023-01-25T08:57:31;17.92;;;16.02;;
2652;SDS011;1336;48.692;9.144;2023-01-25T08:58:23;16.88;;;15.10;;
2652;SDS011;1336;48.692;9.144;2023-01-25T08:59:14;18.07;;;15.17;;
2652;SDS011;1336;48.692;9.144;2023-01-25T09:00:06;18.30;;;15.70;;
2652;SDS011;1336;48.692;9.144;2023-01-25T09:01:02;18.95;;;16.33;;
2652;SDS011;1336;48.692;9.144;2023-01-25T09:01:55;19.50;;;16.90;;
2652;SDS011;1336;48.692;9.144;2023-01-25T09:02:45;16.53;;;14.80;;
2652;SDS011;1336;48.692;9.144;2023-01-25T09:03:38;17.67;;;15.82;;
2652;SDS011;1336;48.692;9.144;2023-01-25T09:04:30;18.15;;;16.00;;
2652;SDS011;1336;48.692;9.144;2023-01-25T09:05:21;16.65;;;14.70;;
2652;SDS011;1336;48.692;9.144;2023-01-25T09:06:12;19.30;;;15.90;;
2652;SDS011;1336;48.692;9.144;2023-01-25T09:07:06;18.30;;;16.15;;
2652;SDS011;1336;48.692;9.144;2023-01-25T09:07:59;17.48;;;15.60;;
2652;SDS011;1336;48.692;9.144;2023-01-25T09:08:50;17.10;;;15.27;;
2652;SDS011;1336;48.692;9.144;2023-01-25T09:09:42;16.73;;;14.93;;
2652;SDS011;1336;48.692;9.144;2023-01-25T09:10:32;17.07;;;15.27;;
2652;SDS011;1336;48.692;9.144;2023-01-25T09:11:24;19.60;;;16.70;;
2652;SDS011;1336;48.692;9.144;2023-01-25T09:12:15;18.60;;;16.10;;
2652;SDS011;1336;48.692;9.144;2023-01-25T09:13:07;18.55;;;15.75;;
2652;SDS011;1336;48.692;9.144;2023-01-25T09:13:57;18.53;;;16.63;;
2652;SDS011;1336;48.692;9.144;2023-01-25T09:14:49;18.40;;;16.35;;
2652;SDS011;1336;48.692;9.144;2023-01-25T09:15:40;18.40;;;16.40;;
2652;SDS011;1336;48.692;9.144;2023-01-25T09:16:31;18.85;;;16.58;;
2652;SDS011;1336;48.692;9.144;2023-01-25T09:17:23;18.33;;;15.55;;
2652;SDS011;1336;48.692;9.144;2023-01-25T09:18:14;19.20;;;16.50;;
2652;SDS011;1336;48.692;9.144;2023-01-25T09:19:06;19.50;;;16.08;;
2652;SDS011;1336;48.692;9.144;2023-01-25T09:19:58;17.45;;;14.88;;
2652;SDS011;1336;48.692;9.144;2023-01-25T09:20:48;18.70;;;15.77;;
2652;SDS011;1336;48.692;9.144;2023-01-25T09:21:40;19.13;;;16.13;;
2652;SDS011;1336;48.692;9.144;2023-01-25T09:22:32;19.03;;;15.60;;
2652;SDS011;1336;48.692;9.144;2023-01-25T09:23:24;18.88;;;16.30;;
2652;SDS011;1336;48.692;9.144;2023-01-25T09:24:15;19.50;;;17.00;;
2652;SDS011;1336;48.692;9.144;2023-01-25T09:25:07;19.10;;;17.10;;
2652;SDS011;1336;48.692;9.144;2023-01-25T09:25:59;20.08;;;16.48;;
2652;SDS011;1336;48.692;9.144;2023-01-25T09:26:51;17.65;;;15.20;;
2652;SDS011;1336;48.692;9.144;2023-01-25T09:27:43;22.08;;;16.38;;
2652;SDS011;1336;48.692;9.144;2023-01-25T09:28:34;19.57;;;15.90;;
2652;SDS011;1336;48.692;9.144;2023-01-25T09:29:25;17.92;;;15.73;;
2652;SDS011;1336;48.692;9.144;2023-01-25T09:30:17;18.17;;;16.23;;
2652;SDS011;1336;48.692;9.144;2023-01-25T09:31:08;19.07;;;16.47;;
2652;SDS011;1336;48.692;9.144;2023-01-25T09:32:00;18.35;;;16.00;;
2652;SDS011;1336;48.692;9.144;2023-01-25T09:32:52;18.38;;;16.38;;
2652;SDS011;1336;48.692;9.144;2023-01-25T09:33:43;17.83;;;15.80;;
2652;SDS011;1336;48.692;9.144;2023-01-25T09:34:35;19.10;;;17.05;;
2652;SDS011;1336;48.692;9.144;2023-01-25T09:35:26;18.67;;;16.48;;
2652;SDS011;1336;48.692;9.144;2023-01-25T09:36:18;19.02;;;16.63;;
2652;SDS011;1336;48.692;9.144;2023-01-25T09:37:10;21.13;;;16.13;;
2652;SDS011;1336;48.692;9.144;2023-01-25T09:38:02;18.90;;;16.83;;
2652;SDS011;1336;48.692;9.144;2023-01-25T09:38:54;19.55;;;16.27;;
2652;SDS011;1336;48.692;9.144;2023-01-25T09:39:46;20.90;;;18.23;;
2652;SDS011;1336;48.692;9.144;2023-01-25T09:40:37;22.23;;;18.03;;
2652;SDS011;1336;48.692;9.144;2023-01-25T09:41:33;25.48;;;18.48;;
2652;SDS011;1336;48.692;9.144;2023-01-25T09:42:56;20.80;;;17.08;;
2652;SDS011;1336;48.692;9.144;2023-01-25T09:45:14;21.10;;;16.58;;
2652;SDS011;1336;48.692;9.144;2023-01-25T09:46:15;20.63;;;17.30;;
2652;SDS011;1336;48.692;9.144;2023-01-25T09:47:16;20.17;;;18.02;;
2652;SDS011;1336;48.692;9.144;2023-01-25T09:48:17;19.33;;;16.40;;
2652;SDS011;1336;48.692;9.144;2023-01-25T09:49:20;18.35;;;16.33;;
2652;SDS011;1336;48.692;9.144;2023-01-25T09:50:33;18.20;;;16.10;;
2652;SDS011;1336;48.692;9.144;2023-01-25T09:51:28;18.10;;;16.20;;
2652;SDS011;1336;48.692;9.144;2023-01-25T09:52:39;17.65;;;15.45;;
2652;SDS011;1336;48.692;9.144;2023-01-25T09:53:55;17.13;;;15.23;;
2652;SDS011;1336;48.692;9.144;2023-01-25T09:54:48;16.83;;;14.40;;
2652;SDS011;1336;48.692;9.144;2023-01-25T09:55:40;19.45;;;16.85;;
2652;SDS011;1336;48.692;9.144;2023-01-25T09:56:33;19.05;;;15.70;;
2652;SDS011;1336;48.692;9.144;2023-01-25T09:57:29;21.33;;;17.20;;
2652;SDS011;1336;48.692;9.144;2023-01-25T09:58:24;20.27;;;16.80;;
2652;SDS011;1336;48.692;9.144;2023-01-25T09:59:21;18.85;;;16.27;;
2652;SDS011;1336;48.692;9.144;2023-01-25T10:00:23;19.20;;;17.20;;
2652;SDS011;1336;48.692;9.144;2023-01-25T10:01:23;18.35;;;16.25;;
2652;SDS011;1336;48.692;9.144;2023-01-25T10:02:22;18.77;;;15.93;;
2652;SDS011;1336;48.692;9.144;2023-01-25T10:03:24;21.27;;;16.23;;
2652;SDS011;1336;48.692;9.144;2023-01-25T10:04:20;19.05;;;16.02;;
2652;SDS011;1336;48.692;9.144;2023-01-25T10:05:18;20.80;;;16.00;;
2652;SDS011;1336;48.692;9.144;2023-01-25T10:06:11;19.35;;;16.63;;
2652;SDS011;1336;48.692;9.144;2023-01-25T10:07:09;17.33;;;15.38;;
2652;SDS011;1336;48.692;9.144;2023-01-25T10:08:23;19.33;;;16.17;;
2652;SDS011;1336;48.692;9.144;2023-01-25T10:09:26;19.45;;;17.00;;
2652;SDS011;1336;48.692;9.144;2023-01-25T10:10:25;19.08;;;16.42;;
2652;SDS011;1336;48.692;9.144;2023-01-25T10:11:23;19.42;;;17.33;;
2652;SDS011;1336;48.692;9.144;2023-01-25T10:12:18;18.73;;;16.73;;
2652;SDS011;1336;48.692;9.144;2023-01-25T10:13:11;20.10;;;17.90;;
2652;SDS011;1336;48.692;9.144;2023-01-25T10:14:06;20.13;;;15.98;;
2652;SDS011;1336;48.692;9.144;2023-01-25T10:15:08;18.88;;;15.85;;
2652;SDS011;1336;48.692;9.144;2023-01-25T10:16:10;21.33;;;16.73;;
2652;SDS011;1336;48.692;9.144;2023-01-25T10:17:09;17.75;;;15.85;;
2652;SDS011;1336;48.692;9.144;2023-01-25T10:18:11;18.48;;;15.90;;
2652;SDS011;1336;48.692;9.144;2023-01-25T10:19:13;18.05;;;15.82;;
2652;SDS011;1336;48.692;9.144;2023-01-25T10:20:16;18.05;;;16.17;;
2652;SDS011;1336;48.692;9.144;2023-01-25T10:21:16;21.67;;;17.60;;
2652;SDS011;1336;48.692;9.144;2023-01-25T10:22:11;18.05;;;16.15;;
2652;SDS011;1336;48.692;9.144;2023-01-25T10:23:11;19.95;;;16.70;;
2652;SDS011;1336;48.692;9.144;2023-01-25T10:25:50;20.00;;;16.98;;
2652;SDS011;1336;48.692;9.144;2023-01-25T10:26:49;19.88;;;17.60;;
2652;SDS011;1336;48.692;9.144;2023-01-25T10:27:48;19.70;;;16.08;;
2652;SDS011;1336;48.692;9.144;2023-01-25T10:28:52;18.98;;;17.02;;
2652;SDS011;1336;48.692;9.144;2023-01-25T10:29:47;20.55;;;17.10;;
2652;SDS011;1336;48.692;9.144;2023-01-25T10:30:42;21.85;;;17.83;;
2652;SDS011;1336;48.692;9.144;2023-01-25T10:31:45;19.35;;;17.05;;
2652;SDS011;1336;48.692;9.144;2023-01-25T10:32:39;19.98;;;17.17;;
2652;SDS011;1336;48.692;9.144;2023-01-25T10:33:31;19.35;;;16.77;;
2652;SDS011;1336;48.692;9.144;2023-01-25T10:34:29;20.27;;;17.20;;
2652;SDS011;1336;48.692;9.144;2023-01-25T10:35:24;18.38;;;16.23;;
2652;SDS011;1336;48.692;9.144;2023-01-25T10:36:20;19.92;;;17.77;;
2652;SDS011;1336;48.692;9.144;2023-01-25T10:37:14;21.13;;;17.38;;
2652;SDS011;1336;48.692;9.144;2023-01-25T10:38:10;18.83;;;16.75;;
2652;SDS011;1336;48.692;9.144;2023-01-25T10:39:06;21.40;;;18.13;;
2652;SDS011;1336;48.692;9.144;2023-01-25T10:40:01;20.60;;;18.40;;
2652;SDS011;1336;48.692;9.144;2023-01-25T10:40:55;23.20;;;18.15;;
2652;SDS011;1336;48.692;9.144;2023-01-25T10:41:52;20.85;;;17.85;;
2652;SDS011;1336;48.692;9.144;2023-01-25T10:42:50;21.38;;;17.92;;
2652;SDS011;1336;48.692;9.144;2023-01-25T10:43:44;21.30;;;18.50;;
2652;SDS011;1336;48.692;9.144;2023-01-25T10:44:36;19.98;;;17.55;;
2652;SDS011;1336;48.692;9.144;2023-01-25T10:45:26;19.50;;;17.40;;
2652;SDS011;1336;48.692;9.144;2023-01-25T10:46:19;18.17;;;15.98;;
2652;SDS011;1336;48.692;9.144;2023-01-25T10:47:14;17.65;;;15.75;;
2652;SDS011;1336;48.692;9.144;2023-01-25T10:48:11;18.35;;;15.93;;
2652;SDS011;1336;48.692;9.144;2023-01-25T10:49:12;18.33;;;16.30;;
2652;SDS011;1336;48.692;9.144;2023-01-25T10:51:46;18.90;;;16.90;;
2652;SDS011;1336;48.692;9.144;2023-01-25T10:54:15;18.00;;;16.10;;
2652;SDS011;1336;48.692;9.144;2023-01-25T10:55:13;20.50;;;16.67;;
2652;SDS011;1336;48.692;9.144;2023-01-25T10:56:15;20.33;;;16.17;;
2652;SDS011;1336;48.692;9.144;2023-01-25T10:57:12;18.08;;;16.15;;
2652;SDS011;1336;48.692;9.144;2023-01-25T10:58:27;19.08;;;15.88;;
2652;SDS011;1336;48.692;9.144;2023-01-25T10:59:20;20.95;;;17.35;;
2652;SDS011;1336;48.692;9.144;2023-01-25T11:00:19;19.80;;;17.40;;
2652;SDS011;1336;48.692;9.144;2023-01-25T11:01:23;18.73;;;16.80;;
2652;SDS011;1336;48.692;9.144;2023-01-25T11:02:33;18.08;;;16.10;;
2652;SDS011;1336;48.692;9.144;2023-01-25T11:03:34;19.00;;;17.00;;
2652;SDS011;1336;48.692;9.144;2023-01-25T11:04:28;19.58;;;16.73;;
2652;SDS011;1336;48.692;9.144;2023-01-25T11:05:31;19.77;;;17.60;;
2652;SDS011;1336;48.692;9.144;2023-01-25T11:06:30;19.20;;;16.83;;
2652;SDS011;1336;48.692;9.144;2023-01-25T11:07:24;17.75;;;15.15;;
2652;SDS011;1336;48.692;9.144;2023-01-25T11:08:20;19.45;;;16.98;;
2652;SDS011;1336;48.692;9.144;2023-01-25T11:09:28;18.42;;;16.40;;
2652;SDS011;1336;48.692;9.144;2023-01-25T11:10:31;17.20;;;15.40;;
2652;SDS011;1336;48.692;9.144;2023-01-25T11:11:25;16.73;;;15.02;;
2652;SDS011;1336;48.692;9.144;2023-01-25T11:12:23;21.05;;;17.33;;
2652;SDS011;1336;48.692;9.144;2023-01-25T11:13:16;17.07;;;15.23;;
2652;SDS011;1336;48.692;9.144;2023-01-25T11:14:14;19.10;;;16.92;;
2652;SDS011;1336;48.692;9.144;2023-01-25T11:15:21;17.52;;;15.73;;
2652;SDS011;1336;48.692;9.144;2023-01-25T11:16:19;18.40;;;16.45;;
2652;SDS011;1336;48.692;9.144;2023-01-25T11:17:24;17.70;;;15.77;;
2652;SDS011;1336;48.692;9.144;2023-01-25T11:18:19;18.75;;;16.65;;
2652;SDS011;1336;48.692;9.144;2023-01-25T11:19:26;19.92;;;16.02;;
2652;SDS011;1336;48.692;9.144;2023-01-25T11:20:21;17.45;;;15.60;;
2652;SDS011;1336;48.692;9.144;2023-01-25T11:21:13;17.17;;;15.37;;
2652;SDS011;1336;48.692;9.144;2023-01-25T11:22:19;16.98;;;15.20;;
2652;SDS011;1336;48.692;9.144;2023-01-25T11:23:20;17.17;;;15.48;;
2652;SDS011;1336;48.692;9.144;2023-01-25T11:24:16;17.30;;;15.50;;
2652;SDS011;1336;48.692;9.144;2023-01-25T11:25:22;16.52;;;14.73;;
2652;SDS011;1336;48.692;9.144;2023-01-25T11:26:22;19.17;;;15.20;;
2652;SDS011;1336;48.692;9.144;2023-01-25T11:27:15;16.73;;;14.90;;
2652;SDS011;1336;48.692;9.144;2023-01-25T11:28:16;17.25;;;15.20;;
2652;SDS011;1336;48.692;9.144;2023-01-25T11:29:11;18.95;;;15.27;;
2652;SDS011;1336;48.692;9.144;2023-01-25T11:30:09;17.75;;;15.77;;
2652;SDS011;1336;48.692;9.144;2023-01-25T11:31:08;17.70;;;15.75;;
2652;SDS011;1336;48.692;9.144;2023-01-25T11:32:04;17.88;;;15.05;;